Impacts TAF Board INFO
FOR SITUATIONAL AWARENESS. NOT TO BE USED FOR FLIGHT PLANNING PURPOSES.
IDs:

KDCA - Washington/National, VA, US

Issued at 2323 UTC 16 Dec 2017
Updated at 0229 UTC 17 Dec 2017
Potential Impact None Slight Moderate High
Time0152Z 17/03Z 17/04Z 17/05Z 17/06Z 17/07Z 17/08Z 17/09Z 17/10Z 17/11Z 17/12Z 17/13Z 17/14Z 17/15Z>>
Type OBS PRVL PRVL PRVL PRVL PRVL PRVL PRVL PRVL PRVL PRVL PRVL PRVL PRVL
VIS 10 >6 >6 >6 >6 >6 >6 >6 >6 >6 >6 >6 >6 >6
CIG -- -- -- -- -- -- -- -- -- -- -- -- -- --
Cover CLR FEW FEW FEW FEW FEW FEW FEW FEW FEW FEW FEW FEW FEW
FltCat VFR VFR VFR VFR VFR VFR VFR VFR VFR VFR VFR VFR VFR VFR
WX -- -- -- -- -- -- -- -- -- -- -- -- -- --
WDir 200 220 220 VRB VRB VRB VRB VRB VRB VRB VRB VRB VRB VRB
WSpd 3 5 5 3 3 3 3 3 3 3 3 3 3 3
WGst -- -- -- -- -- -- -- -- -- -- -- -- -- --

Raw TAF
KDCA 162323Z 1700/1806 22005KT P6SM FEW250
  FM170500 VRB03KT P6SM FEW250
  FM171800 14005KT P6SM BKN120


Raw METAR
KDCA 170152Z 20003KT 10SM CLR 05/M04 A3018 RMK AO2 SLP220 T00501044
KDCA 170052Z 20005KT 10SM CLR 04/M04 A3016 RMK AO2 SLP213 T00441039
KDCA 162352Z 18006KT 10SM CLR 04/M02 A3015 RMK AO2 SLP209 T00441022 10089 20044 53022

METAR Board
Radar Display
Forecast Discussion

FOR SITUATIONAL AWARENESS. NOT TO BE USED FOR FLIGHT PLANNING PURPOSES.